sensor_id;sensor_type;location;lat;lon;timestamp;P1;durP1;ratioP1;P2;durP2;ratioP2
69185;SDS011;56298;49.246;9.410;2023-03-01T00:00:10;25.63;;;22.70;;
69185;SDS011;56298;49.246;9.410;2023-03-01T00:02:35;27.30;;;22.95;;
69185;SDS011;56298;49.246;9.410;2023-03-01T00:05:01;25.23;;;22.43;;
69185;SDS011;56298;49.246;9.410;2023-03-01T00:07:27;26.33;;;22.95;;
69185;SDS011;56298;49.246;9.410;2023-03-01T00:09:52;25.97;;;22.60;;
69185;SDS011;56298;49.246;9.410;2023-03-01T00:12:17;26.83;;;22.23;;
69185;SDS011;56298;49.246;9.410;2023-03-01T00:14:42;27.60;;;22.57;;
69185;SDS011;56298;49.246;9.410;2023-03-01T00:17:08;26.90;;;23.47;;
69185;SDS011;56298;49.246;9.410;2023-03-01T00:19:33;26.23;;;23.07;;
69185;SDS011;56298;49.246;9.410;2023-03-01T00:21:58;25.93;;;23.13;;
69185;SDS011;56298;49.246;9.410;2023-03-01T00:24:23;25.80;;;23.10;;
69185;SDS011;56298;49.246;9.410;2023-03-01T00:26:52;25.77;;;22.67;;
69185;SDS011;56298;49.246;9.410;2023-03-01T00:29:20;26.15;;;22.75;;
69185;SDS011;56298;49.246;9.410;2023-03-01T00:31:45;26.40;;;23.23;;
69185;SDS011;56298;49.246;9.410;2023-03-01T00:34:10;28.67;;;24.07;;
69185;SDS011;56298;49.246;9.410;2023-03-01T00:36:36;27.70;;;22.33;;
69185;SDS011;56298;49.246;9.410;2023-03-01T00:39:03;26.63;;;23.60;;
69185;SDS011;56298;49.246;9.410;2023-03-01T00:41:29;27.50;;;24.50;;
69185;SDS011;56298;49.246;9.410;2023-03-01T00:43:55;28.50;;;23.80;;
69185;SDS011;56298;49.246;9.410;2023-03-01T00:46:22;30.27;;;24.33;;
69185;SDS011;56298;49.246;9.410;2023-03-01T00:48:49;28.77;;;25.27;;
69185;SDS011;56298;49.246;9.410;2023-03-01T00:51:18;29.40;;;26.23;;
69185;SDS011;56298;49.246;9.410;2023-03-01T00:53:54;29.00;;;24.48;;
69185;SDS011;56298;49.246;9.410;2023-03-01T00:56:21;29.02;;;24.10;;
69185;SDS011;56298;49.246;9.410;2023-03-01T00:58:47;28.10;;;25.00;;
69185;SDS011;56298;49.246;9.410;2023-03-01T01:03:48;28.33;;;25.02;;
69185;SDS011;56298;49.246;9.410;2023-03-01T01:06:25;28.98;;;25.27;;
69185;SDS011;56298;49.246;9.410;2023-03-01T01:08:53;28.10;;;24.33;;
69185;SDS011;56298;49.246;9.410;2023-03-01T01:11:19;29.80;;;23.38;;
69185;SDS011;56298;49.246;9.410;2023-03-01T01:13:45;29.17;;;24.63;;
69185;SDS011;56298;49.246;9.410;2023-03-01T01:16:11;29.80;;;24.35;;
69185;SDS011;56298;49.246;9.410;2023-03-01T01:18:38;30.90;;;25.40;;
69185;SDS011;56298;49.246;9.410;2023-03-01T01:21:13;31.25;;;26.02;;
69185;SDS011;56298;49.246;9.410;2023-03-01T01:23:40;29.98;;;24.67;;
69185;SDS011;56298;49.246;9.410;2023-03-01T01:26:08;31.65;;;24.83;;
69185;SDS011;56298;49.246;9.410;2023-03-01T01:28:35;27.90;;;23.33;;
69185;SDS011;56298;49.246;9.410;2023-03-01T01:31:01;28.10;;;24.95;;
69185;SDS011;56298;49.246;9.410;2023-03-01T01:33:26;31.98;;;24.92;;
69185;SDS011;56298;49.246;9.410;2023-03-01T01:35:51;29.00;;;25.38;;
69185;SDS011;56298;49.246;9.410;2023-03-01T01:38:17;29.37;;;25.27;;
69185;SDS011;56298;49.246;9.410;2023-03-01T01:40:43;30.73;;;27.03;;
69185;SDS011;56298;49.246;9.410;2023-03-01T01:43:20;29.15;;;26.02;;
69185;SDS011;56298;49.246;9.410;2023-03-01T01:45:50;30.65;;;26.17;;
69185;SDS011;56298;49.246;9.410;2023-03-01T01:48:21;30.52;;;25.02;;
69185;SDS011;56298;49.246;9.410;2023-03-01T01:50:51;30.53;;;25.73;;
69185;SDS011;56298;49.246;9.410;2023-03-01T01:53:22;28.17;;;24.17;;
69185;SDS011;56298;49.246;9.410;2023-03-01T01:55:51;29.10;;;25.87;;
69185;SDS011;56298;49.246;9.410;2023-03-01T01:58:21;29.88;;;23.88;;
69185;SDS011;56298;49.246;9.410;2023-03-01T02:00:50;29.73;;;25.25;;
69185;SDS011;56298;49.246;9.410;2023-03-01T02:03:17;28.77;;;25.57;;
69185;SDS011;56298;49.246;9.410;2023-03-01T02:05:51;30.43;;;24.97;;
69185;SDS011;56298;49.246;9.410;2023-03-01T02:08:21;31.60;;;25.42;;
69185;SDS011;56298;49.246;9.410;2023-03-01T02:10:50;28.83;;;24.53;;
69185;SDS011;56298;49.246;9.410;2023-03-01T02:13:17;28.95;;;24.38;;
69185;SDS011;56298;49.246;9.410;2023-03-01T02:15:42;29.57;;;24.97;;
69185;SDS011;56298;49.246;9.410;2023-03-01T02:18:09;30.85;;;26.95;;
69185;SDS011;56298;49.246;9.410;2023-03-01T02:20:51;28.92;;;24.52;;
69185;SDS011;56298;49.246;9.410;2023-03-01T02:23:30;29.23;;;25.63;;
69185;SDS011;56298;49.246;9.410;2023-03-01T02:25:57;30.27;;;25.40;;
69185;SDS011;56298;49.246;9.410;2023-03-01T02:28:36;31.40;;;26.08;;
69185;SDS011;56298;49.246;9.410;2023-03-01T02:31:03;29.00;;;24.58;;
69185;SDS011;56298;49.246;9.410;2023-03-01T02:33:49;30.75;;;24.95;;
69185;SDS011;56298;49.246;9.410;2023-03-01T02:36:18;30.65;;;23.70;;
69185;SDS011;56298;49.246;9.410;2023-03-01T02:38:44;30.33;;;24.23;;
69185;SDS011;56298;49.246;9.410;2023-03-01T02:41:12;32.57;;;25.67;;
69185;SDS011;56298;49.246;9.410;2023-03-01T02:43:39;32.38;;;25.80;;
69185;SDS011;56298;49.246;9.410;2023-03-01T02:46:07;32.33;;;26.13;;
69185;SDS011;56298;49.246;9.410;2023-03-01T02:48:46;31.50;;;24.73;;
69185;SDS011;56298;49.246;9.410;2023-03-01T02:51:27;30.98;;;24.95;;
69185;SDS011;56298;49.246;9.410;2023-03-01T02:56:34;30.77;;;26.57;;
69185;SDS011;56298;49.246;9.410;2023-03-01T02:59:00;32.00;;;25.95;;
69185;SDS011;56298;49.246;9.410;2023-03-01T03:01:27;33.30;;;26.10;;
69185;SDS011;56298;49.246;9.410;2023-03-01T03:04:02;32.55;;;25.73;;
69185;SDS011;56298;49.246;9.410;2023-03-01T03:06:35;31.00;;;26.23;;
69185;SDS011;56298;49.246;9.410;2023-03-01T03:09:01;30.88;;;25.20;;
69185;SDS011;56298;49.246;9.410;2023-03-01T03:11:28;31.30;;;25.33;;
69185;SDS011;56298;49.246;9.410;2023-03-01T03:13:54;30.63;;;26.63;;
69185;SDS011;56298;49.246;9.410;2023-03-01T03:16:19;30.00;;;24.60;;
69185;SDS011;56298;49.246;9.410;2023-03-01T03:18:45;28.57;;;23.87;;
69185;SDS011;56298;49.246;9.410;2023-03-01T03:21:11;31.60;;;26.40;;
69185;SDS011;56298;49.246;9.410;2023-03-01T03:23:37;32.90;;;25.85;;
69185;SDS011;56298;49.246;9.410;2023-03-01T03:26:03;33.05;;;26.77;;
69185;SDS011;56298;49.246;9.410;2023-03-01T03:28:30;30.70;;;26.45;;
69185;SDS011;56298;49.246;9.410;2023-03-01T03:30:56;30.38;;;26.63;;
69185;SDS011;56298;49.246;9.410;2023-03-01T03:33:21;30.53;;;26.67;;
69185;SDS011;56298;49.246;9.410;2023-03-01T03:35:48;34.00;;;26.50;;
69185;SDS011;56298;49.246;9.410;2023-03-01T03:38:14;32.23;;;25.73;;
69185;SDS011;56298;49.246;9.410;2023-03-01T03:40:43;34.77;;;25.53;;
69185;SDS011;56298;49.246;9.410;2023-03-01T03:43:11;31.90;;;25.98;;
69185;SDS011;56298;49.246;9.410;2023-03-01T03:45:38;32.60;;;26.23;;
69185;SDS011;56298;49.246;9.410;2023-03-01T03:48:04;33.53;;;25.80;;
69185;SDS011;56298;49.246;9.410;2023-03-01T03:50:31;36.73;;;27.50;;
69185;SDS011;56298;49.246;9.410;2023-03-01T03:52:59;34.13;;;28.33;;
69185;SDS011;56298;49.246;9.410;2023-03-01T03:55:25;30.13;;;26.30;;
69185;SDS011;56298;49.246;9.410;2023-03-01T03:57:55;31.40;;;24.70;;
69185;SDS011;56298;49.246;9.410;2023-03-01T04:00:22;34.93;;;26.87;;
69185;SDS011;56298;49.246;9.410;2023-03-01T04:02:49;31.80;;;26.55;;
69185;SDS011;56298;49.246;9.410;2023-03-01T04:05:16;32.87;;;27.43;;
69185;SDS011;56298;49.246;9.410;2023-03-01T04:07:43;33.10;;;27.33;;
69185;SDS011;56298;49.246;9.410;2023-03-01T04:10:10;32.53;;;26.27;;
69185;SDS011;56298;49.246;9.410;2023-03-01T04:12:37;32.60;;;24.63;;
69185;SDS011;56298;49.246;9.410;2023-03-01T04:15:03;33.47;;;26.03;;
69185;SDS011;56298;49.246;9.410;2023-03-01T04:17:37;34.42;;;27.38;;
69185;SDS011;56298;49.246;9.410;2023-03-01T04:20:04;33.03;;;26.50;;
69185;SDS011;56298;49.246;9.410;2023-03-01T04:22:30;33.53;;;26.52;;
69185;SDS011;56298;49.246;9.410;2023-03-01T04:24:56;34.37;;;27.60;;
69185;SDS011;56298;49.246;9.410;2023-03-01T04:27:22;33.40;;;26.53;;
69185;SDS011;56298;49.246;9.410;2023-03-01T04:29:47;35.73;;;27.10;;
69185;SDS011;56298;49.246;9.410;2023-03-01T04:32:12;34.53;;;28.23;;
69185;SDS011;56298;49.246;9.410;2023-03-01T04:34:41;32.73;;;26.73;;
69185;SDS011;56298;49.246;9.410;2023-03-01T04:37:06;36.33;;;27.70;;
69185;SDS011;56298;49.246;9.410;2023-03-01T04:39:31;35.13;;;26.53;;
69185;SDS011;56298;49.246;9.410;2023-03-01T04:41:57;35.20;;;26.80;;
69185;SDS011;56298;49.246;9.410;2023-03-01T04:44:22;34.20;;;27.57;;
69185;SDS011;56298;49.246;9.410;2023-03-01T04:46:48;31.60;;;25.47;;
69185;SDS011;56298;49.246;9.410;2023-03-01T04:49:14;33.30;;;26.63;;
69185;SDS011;56298;49.246;9.410;2023-03-01T04:51:40;32.42;;;27.50;;
69185;SDS011;56298;49.246;9.410;2023-03-01T04:54:06;34.90;;;27.83;;
69185;SDS011;56298;49.246;9.410;2023-03-01T04:56:33;37.25;;;28.65;;
69185;SDS011;56298;49.246;9.410;2023-03-01T04:58:59;36.17;;;27.13;;
69185;SDS011;56298;49.246;9.410;2023-03-01T05:01:25;32.20;;;27.48;;
69185;SDS011;56298;49.246;9.410;2023-03-01T05:03:50;36.03;;;28.60;;
69185;SDS011;56298;49.246;9.410;2023-03-01T05:06:17;36.60;;;28.67;;
69185;SDS011;56298;49.246;9.410;2023-03-01T05:08:43;34.95;;;27.30;;
69185;SDS011;56298;49.246;9.410;2023-03-01T05:11:09;36.23;;;27.27;;
69185;SDS011;56298;49.246;9.410;2023-03-01T05:13:35;33.72;;;27.52;;
69185;SDS011;56298;49.246;9.410;2023-03-01T05:16:02;35.38;;;27.50;;
69185;SDS011;56298;49.246;9.410;2023-03-01T05:18:29;34.20;;;28.50;;
69185;SDS011;56298;49.246;9.410;2023-03-01T05:20:56;35.45;;;27.38;;
69185;SDS011;56298;49.246;9.410;2023-03-01T05:23:29;36.80;;;28.73;;
69185;SDS011;56298;49.246;9.410;2023-03-01T05:25:57;36.85;;;29.73;;
69185;SDS011;56298;49.246;9.410;2023-03-01T05:28:23;37.05;;;29.33;;
69185;SDS011;56298;49.246;9.410;2023-03-01T05:30:48;36.20;;;29.17;;
69185;SDS011;56298;49.246;9.410;2023-03-01T05:33:16;34.90;;;27.88;;
69185;SDS011;56298;49.246;9.410;2023-03-01T05:35:42;38.28;;;27.50;;
69185;SDS011;56298;49.246;9.410;2023-03-01T05:38:09;36.22;;;28.30;;
69185;SDS011;56298;49.246;9.410;2023-03-01T05:40:38;37.97;;;29.25;;
69185;SDS011;56298;49.246;9.410;2023-03-01T05:43:04;36.47;;;27.00;;
69185;SDS011;56298;49.246;9.410;2023-03-01T05:45:30;35.35;;;27.85;;
69185;SDS011;56298;49.246;9.410;2023-03-01T05:47:57;34.72;;;27.75;;
69185;SDS011;56298;49.246;9.410;2023-03-01T05:50:24;36.67;;;29.30;;
69185;SDS011;56298;49.246;9.410;2023-03-01T05:52:51;36.67;;;27.77;;
69185;SDS011;56298;49.246;9.410;2023-03-01T05:55:22;36.63;;;29.30;;
69185;SDS011;56298;49.246;9.410;2023-03-01T05:57:47;35.93;;;28.50;;
69185;SDS011;56298;49.246;9.410;2023-03-01T06:00:14;38.03;;;29.57;;
69185;SDS011;56298;49.246;9.410;2023-03-01T06:02:40;34.75;;;28.40;;
69185;SDS011;56298;49.246;9.410;2023-03-01T06:05:06;32.53;;;27.23;;
69185;SDS011;56298;49.246;9.410;2023-03-01T06:07:33;36.80;;;27.25;;
69185;SDS011;56298;49.246;9.410;2023-03-01T06:09:59;37.28;;;28.83;;
69185;SDS011;56298;49.246;9.410;2023-03-01T06:12:25;37.15;;;29.65;;
69185;SDS011;56298;49.246;9.410;2023-03-01T06:14:50;37.17;;;28.50;;
69185;SDS011;56298;49.246;9.410;2023-03-01T06:17:15;39.63;;;29.23;;
69185;SDS011;56298;49.246;9.410;2023-03-01T06:19:41;37.43;;;30.27;;
69185;SDS011;56298;49.246;9.410;2023-03-01T06:22:06;35.92;;;28.00;;
69185;SDS011;56298;49.246;9.410;2023-03-01T06:24:31;34.30;;;28.00;;
69185;SDS011;56298;49.246;9.410;2023-03-01T06:26:58;35.65;;;27.55;;
69185;SDS011;56298;49.246;9.410;2023-03-01T06:29:23;37.40;;;28.20;;
69185;SDS011;56298;49.246;9.410;2023-03-01T06:31:48;35.37;;;28.23;;
69185;SDS011;56298;49.246;9.410;2023-03-01T06:34:14;37.42;;;27.10;;
69185;SDS011;56298;49.246;9.410;2023-03-01T06:36:40;34.60;;;28.73;;
69185;SDS011;56298;49.246;9.410;2023-03-01T06:39:05;35.38;;;26.65;;
69185;SDS011;56298;49.246;9.410;2023-03-01T06:41:31;36.03;;;27.70;;
69185;SDS011;56298;49.246;9.410;2023-03-01T06:43:57;34.70;;;27.58;;
69185;SDS011;56298;49.246;9.410;2023-03-01T06:46:23;32.88;;;27.08;;
69185;SDS011;56298;49.246;9.410;2023-03-01T06:48:49;33.90;;;27.77;;
69185;SDS011;56298;49.246;9.410;2023-03-01T06:51:14;33.67;;;27.30;;
69185;SDS011;56298;49.246;9.410;2023-03-01T06:53:39;36.37;;;28.87;;
69185;SDS011;56298;49.246;9.410;2023-03-01T06:56:04;33.43;;;26.73;;
69185;SDS011;56298;49.246;9.410;2023-03-01T06:58:30;33.87;;;26.87;;
69185;SDS011;56298;49.246;9.410;2023-03-01T07:00:55;34.27;;;27.67;;
69185;SDS011;56298;49.246;9.410;2023-03-01T07:03:20;34.07;;;27.43;;
69185;SDS011;56298;49.246;9.410;2023-03-01T07:05:48;33.10;;;26.60;;
69185;SDS011;56298;49.246;9.410;2023-03-01T07:08:14;35.92;;;27.73;;
69185;SDS011;56298;49.246;9.410;2023-03-01T07:10:40;35.30;;;28.27;;
69185;SDS011;56298;49.246;9.410;2023-03-01T07:13:05;38.30;;;28.27;;
69185;SDS011;56298;49.246;9.410;2023-03-01T07:15:31;33.88;;;28.00;;
69185;SDS011;56298;49.246;9.410;2023-03-01T07:17:57;35.15;;;27.48;;
69185;SDS011;56298;49.246;9.410;2023-03-01T07:20:23;33.97;;;27.97;;
69185;SDS011;56298;49.246;9.410;2023-03-01T07:22:50;33.63;;;25.25;;
69185;SDS011;56298;49.246;9.410;2023-03-01T07:25:16;33.13;;;27.17;;
69185;SDS011;56298;49.246;9.410;2023-03-01T07:27:41;33.97;;;26.20;;
69185;SDS011;56298;49.246;9.410;2023-03-01T07:30:07;32.43;;;25.07;;
69185;SDS011;56298;49.246;9.410;2023-03-01T07:32:33;34.65;;;26.55;;
69185;SDS011;56298;49.246;9.410;2023-03-01T07:34:58;33.00;;;25.93;;
69185;SDS011;56298;49.246;9.410;2023-03-01T07:37:23;32.97;;;25.37;;
69185;SDS011;56298;49.246;9.410;2023-03-01T07:39:49;30.90;;;24.27;;
69185;SDS011;56298;49.246;9.410;2023-03-01T07:42:14;31.30;;;22.50;;
69185;SDS011;56298;49.246;9.410;2023-03-01T07:44:39;30.83;;;22.40;;
69185;SDS011;56298;49.246;9.410;2023-03-01T07:47:05;31.50;;;23.50;;
69185;SDS011;56298;49.246;9.410;2023-03-01T07:49:30;34.67;;;22.70;;
69185;SDS011;56298;49.246;9.410;2023-03-01T07:51:55;31.53;;;22.47;;
69185;SDS011;56298;49.246;9.410;2023-03-01T07:54:21;32.50;;;21.30;;
69185;SDS011;56298;49.246;9.410;2023-03-01T07:56:46;31.17;;;21.87;;
69185;SDS011;56298;49.246;9.410;2023-03-01T07:59:12;31.13;;;21.43;;
69185;SDS011;56298;49.246;9.410;2023-03-01T08:01:37;29.53;;;19.47;;
69185;SDS011;56298;49.246;9.410;2023-03-01T08:04:02;27.73;;;16.13;;
69185;SDS011;56298;49.246;9.410;2023-03-01T08:06:29;28.08;;;16.70;;
69185;SDS011;56298;49.246;9.410;2023-03-01T08:08:54;29.17;;;16.00;;
69185;SDS011;56298;49.246;9.410;2023-03-01T08:11:23;28.42;;;17.60;;
69185;SDS011;56298;49.246;9.410;2023-03-01T08:13:48;28.50;;;16.83;;
69185;SDS011;56298;49.246;9.410;2023-03-01T08:16:14;29.10;;;15.77;;
69185;SDS011;56298;49.246;9.410;2023-03-01T08:18:40;28.40;;;15.00;;
69185;SDS011;56298;49.246;9.410;2023-03-01T08:21:07;29.00;;;15.00;;
69185;SDS011;56298;49.246;9.410;2023-03-01T08:23:37;26.55;;;14.73;;
69185;SDS011;56298;49.246;9.410;2023-03-01T08:26:06;30.23;;;15.13;;
69185;SDS011;56298;49.246;9.410;2023-03-01T08:28:34;29.50;;;14.70;;
69185;SDS011;56298;49.246;9.410;2023-03-01T08:31:00;29.02;;;15.02;;
69185;SDS011;56298;49.246;9.410;2023-03-01T08:33:26;28.40;;;15.03;;
69185;SDS011;56298;49.246;9.410;2023-03-01T08:35:51;29.87;;;14.90;;
69185;SDS011;56298;49.246;9.410;2023-03-01T08:38:17;26.70;;;14.77;;
69185;SDS011;56298;49.246;9.410;2023-03-01T08:40:42;28.00;;;14.57;;
69185;SDS011;56298;49.246;9.410;2023-03-01T08:43:07;26.53;;;15.47;;
69185;SDS011;56298;49.246;9.410;2023-03-01T08:45:32;26.03;;;14.53;;
69185;SDS011;56298;49.246;9.410;2023-03-01T08:47:58;32.23;;;15.10;;
69185;SDS011;56298;49.246;9.410;2023-03-01T08:50:23;31.13;;;15.20;;
69185;SDS011;56298;49.246;9.410;2023-03-01T08:52:49;27.00;;;15.00;;
69185;SDS011;56298;49.246;9.410;2023-03-01T08:55:15;31.20;;;14.90;;
69185;SDS011;56298;49.246;9.410;2023-03-01T08:57:42;27.17;;;14.88;;
69185;SDS011;56298;49.246;9.410;2023-03-01T09:00:07;27.90;;;15.43;;
69185;SDS011;56298;49.246;9.410;2023-03-01T09:02:33;26.23;;;15.07;;
69185;SDS011;56298;49.246;9.410;2023-03-01T09:04:59;27.40;;;14.93;;
69185;SDS011;56298;49.246;9.410;2023-03-01T09:07:24;26.43;;;15.17;;
69185;SDS011;56298;49.246;9.410;2023-03-01T09:09:53;26.43;;;14.57;;
69185;SDS011;56298;49.246;9.410;2023-03-01T09:12:18;28.13;;;15.68;;
69185;SDS011;56298;49.246;9.410;2023-03-01T09:14:44;25.80;;;14.57;;
69185;SDS011;56298;49.246;9.410;2023-03-01T09:17:09;28.23;;;15.67;;
69185;SDS011;56298;49.246;9.410;2023-03-01T09:19:34;29.93;;;16.00;;
69185;SDS011;56298;49.246;9.410;2023-03-01T09:22:00;27.77;;;14.87;;
69185;SDS011;56298;49.246;9.410;2023-03-01T09:24:25;28.00;;;15.57;;
69185;SDS011;56298;49.246;9.410;2023-03-01T09:26:52;28.30;;;15.67;;
69185;SDS011;56298;49.246;9.410;2023-03-01T09:29:18;29.42;;;16.40;;
69185;SDS011;56298;49.246;9.410;2023-03-01T09:31:44;29.50;;;15.37;;
69185;SDS011;56298;49.246;9.410;2023-03-01T09:34:09;29.20;;;15.40;;
69185;SDS011;56298;49.246;9.410;2023-03-01T09:36:35;27.60;;;15.00;;
69185;SDS011;56298;49.246;9.410;2023-03-01T09:39:00;28.50;;;15.57;;
69185;SDS011;56298;49.246;9.410;2023-03-01T09:44:32;29.20;;;15.90;;
69185;SDS011;56298;49.246;9.410;2023-03-01T09:47:03;27.17;;;15.85;;
69185;SDS011;56298;49.246;9.410;2023-03-01T09:49:30;28.50;;;16.40;;
69185;SDS011;56298;49.246;9.410;2023-03-01T09:54:39;29.67;;;15.87;;
69185;SDS011;56298;49.246;9.410;2023-03-01T10:00:17;27.17;;;15.87;;
69185;SDS011;56298;49.246;9.410;2023-03-01T10:02:54;27.77;;;15.73;;
69185;SDS011;56298;49.246;9.410;2023-03-01T10:10:56;27.73;;;15.40;;
69185;SDS011;56298;49.246;9.410;2023-03-01T10:13:28;28.70;;;15.95;;
69185;SDS011;56298;49.246;9.410;2023-03-01T10:16:01;29.23;;;15.83;;
69185;SDS011;56298;49.246;9.410;2023-03-01T10:18:34;28.13;;;16.70;;
69185;SDS011;56298;49.246;9.410;2023-03-01T10:21:02;28.90;;;16.30;;
69185;SDS011;56298;49.246;9.410;2023-03-01T10:23:36;28.13;;;16.38;;
69185;SDS011;56298;49.246;9.410;2023-03-01T10:29:08;29.13;;;16.38;;
69185;SDS011;56298;49.246;9.410;2023-03-01T10:31:46;29.13;;;16.50;;
69185;SDS011;56298;49.246;9.410;2023-03-01T10:34:18;28.50;;;17.25;;
69185;SDS011;56298;49.246;9.410;2023-03-01T10:36:49;27.33;;;16.80;;
69185;SDS011;56298;49.246;9.410;2023-03-01T10:39:18;31.60;;;16.88;;
69185;SDS011;56298;49.246;9.410;2023-03-01T10:42:04;27.73;;;15.80;;
69185;SDS011;56298;49.246;9.410;2023-03-01T10:44:38;28.88;;;16.85;;
69185;SDS011;56298;49.246;9.410;2023-03-01T10:47:13;28.55;;;17.00;;
69185;SDS011;56298;49.246;9.410;2023-03-01T10:49:51;29.63;;;16.60;;
69185;SDS011;56298;49.246;9.410;2023-03-01T10:52:17;28.23;;;16.90;;
69185;SDS011;56298;49.246;9.410;2023-03-01T10:54:51;27.65;;;17.13;;
69185;SDS011;56298;49.246;9.410;2023-03-01T10:57:24;30.15;;;17.33;;
69185;SDS011;56298;49.246;9.410;2023-03-01T11:00:02;28.50;;;17.20;;
69185;SDS011;56298;49.246;9.410;2023-03-01T11:02:42;27.50;;;16.90;;
69185;SDS011;56298;49.246;9.410;2023-03-01T11:10:25;30.50;;;17.08;;
69185;SDS011;56298;49.246;9.410;2023-03-01T11:12:53;29.48;;;17.30;;
69185;SDS011;56298;49.246;9.410;2023-03-01T11:15:28;28.85;;;16.60;;
69185;SDS011;56298;49.246;9.410;2023-03-01T11:17:54;29.00;;;17.00;;
69185;SDS011;56298;49.246;9.410;2023-03-01T11:23:10;30.53;;;17.60;;
69185;SDS011;56298;49.246;9.410;2023-03-01T11:25:39;32.92;;;16.17;;
69185;SDS011;56298;49.246;9.410;2023-03-01T11:28:09;27.98;;;16.65;;
69185;SDS011;56298;49.246;9.410;2023-03-01T11:38:49;27.52;;;16.95;;
69185;SDS011;56298;49.246;9.410;2023-03-01T11:41:15;27.48;;;16.75;;
69185;SDS011;56298;49.246;9.410;2023-03-01T11:43:56;27.58;;;16.42;;
69185;SDS011;56298;49.246;9.410;2023-03-01T11:51:33;27.33;;;16.10;;
69185;SDS011;56298;49.246;9.410;2023-03-01T11:56:55;29.60;;;16.10;;
69185;SDS011;56298;49.246;9.410;2023-03-01T11:59:31;26.45;;;16.65;;
69185;SDS011;56298;49.246;9.410;2023-03-01T12:02:25;28.23;;;16.83;;
69185;SDS011;56298;49.246;9.410;2023-03-01T12:05:25;30.38;;;16.60;;
69185;SDS011;56298;49.246;9.410;2023-03-01T12:07:53;28.45;;;16.55;;
69185;SDS011;56298;49.246;9.410;2023-03-01T12:10:33;26.63;;;16.52;;
69185;SDS011;56298;49.246;9.410;2023-03-01T12:13:16;25.63;;;17.13;;
69185;SDS011;56298;49.246;9.410;2023-03-01T12:19:00;27.57;;;17.30;;
69185;SDS011;56298;49.246;9.410;2023-03-01T12:21:30;29.48;;;16.70;;
69185;SDS011;56298;49.246;9.410;2023-03-01T12:24:10;27.38;;;16.20;;
69185;SDS011;56298;49.246;9.410;2023-03-01T12:29:52;28.83;;;16.23;;
69185;SDS011;56298;49.246;9.410;2023-03-01T12:32:43;28.70;;;16.02;;
69185;SDS011;56298;49.246;9.410;2023-03-01T12:38:37;28.15;;;15.57;;
69185;SDS011;56298;49.246;9.410;2023-03-01T12:43:58;24.42;;;15.23;;
69185;SDS011;56298;49.246;9.410;2023-03-01T12:49:08;26.73;;;15.75;;
69185;SDS011;56298;49.246;9.410;2023-03-01T12:51:38;26.75;;;15.80;;
69185;SDS011;56298;49.246;9.410;2023-03-01T12:54:07;28.80;;;16.42;;
69185;SDS011;56298;49.246;9.410;2023-03-01T12:56:49;25.95;;;15.75;;
69185;SDS011;56298;49.246;9.410;2023-03-01T12:59:32;25.48;;;15.10;;
69185;SDS011;56298;49.246;9.410;2023-03-01T13:04:58;27.27;;;15.80;;
69185;SDS011;56298;49.246;9.410;2023-03-01T13:10:33;27.42;;;15.48;;
69185;SDS011;56298;49.246;9.410;2023-03-01T13:13:14;26.88;;;14.98;;
69185;SDS011;56298;49.246;9.410;2023-03-01T13:15:47;27.02;;;15.88;;
69185;SDS011;56298;49.246;9.410;2023-03-01T13:18:34;26.17;;;15.85;;
69185;SDS011;56298;49.246;9.410;2023-03-01T13:20:59;25.25;;;15.80;;
69185;SDS011;56298;49.246;9.410;2023-03-01T13:23:27;24.23;;;14.87;;
69185;SDS011;56298;49.246;9.410;2023-03-01T13:31:04;25.30;;;15.68;;
69185;SDS011;56298;49.246;9.410;2023-03-01T13:35:59;25.65;;;14.70;;
69185;SDS011;56298;49.246;9.410;2023-03-01T13:38:38;25.83;;;15.48;;
69185;SDS011;56298;49.246;9.410;2023-03-01T13:41:06;28.02;;;15.75;;
69185;SDS011;56298;49.246;9.410;2023-03-01T13:43:35;25.60;;;15.67;;
69185;SDS011;56298;49.246;9.410;2023-03-01T13:46:07;27.77;;;16.00;;
69185;SDS011;56298;49.246;9.410;2023-03-01T13:48:36;27.65;;;15.98;;
69185;SDS011;56298;49.246;9.410;2023-03-01T13:51:03;24.88;;;15.00;;
69185;SDS011;56298;49.246;9.410;2023-03-01T13:53:36;26.27;;;15.93;;
69185;SDS011;56298;49.246;9.410;2023-03-01T13:56:11;26.52;;;15.48;;
69185;SDS011;56298;49.246;9.410;2023-03-01T13:58:53;27.30;;;15.97;;
69185;SDS011;56298;49.246;9.410;2023-03-01T14:01:23;27.15;;;15.48;;
69185;SDS011;56298;49.246;9.410;2023-03-01T14:03:49;26.95;;;15.77;;
69185;SDS011;56298;49.246;9.410;2023-03-01T14:06:15;26.63;;;15.80;;
69185;SDS011;56298;49.246;9.410;2023-03-01T14:08:45;26.57;;;15.53;;
69185;SDS011;56298;49.246;9.410;2023-03-01T14:19:57;26.67;;;15.57;;
69185;SDS011;56298;49.246;9.410;2023-03-01T14:22:28;26.63;;;14.90;;
69185;SDS011;56298;49.246;9.410;2023-03-01T14:24:59;29.55;;;16.33;;
69185;SDS011;56298;49.246;9.410;2023-03-01T14:27:35;26.75;;;15.15;;
69185;SDS011;56298;49.246;9.410;2023-03-01T14:30:10;31.52;;;15.98;;
69185;SDS011;56298;49.246;9.410;2023-03-01T14:32:37;30.27;;;16.38;;
69185;SDS011;56298;49.246;9.410;2023-03-01T14:35:03;27.50;;;15.53;;
69185;SDS011;56298;49.246;9.410;2023-03-01T14:37:33;28.33;;;15.63;;
69185;SDS011;56298;49.246;9.410;2023-03-01T14:40:00;25.02;;;15.60;;
69185;SDS011;56298;49.246;9.410;2023-03-01T14:42:30;26.58;;;15.32;;
69185;SDS011;56298;49.246;9.410;2023-03-01T14:45:00;26.85;;;15.88;;
69185;SDS011;56298;49.246;9.410;2023-03-01T14:47:27;26.08;;;15.95;;
69185;SDS011;56298;49.246;9.410;2023-03-01T14:50:02;27.80;;;15.77;;
69185;SDS011;56298;49.246;9.410;2023-03-01T14:52:33;26.63;;;15.80;;
69185;SDS011;56298;49.246;9.410;2023-03-01T14:55:04;26.02;;;14.70;;
69185;SDS011;56298;49.246;9.410;2023-03-01T14:57:32;25.90;;;15.23;;
69185;SDS011;56298;49.246;9.410;2023-03-01T14:59:58;26.93;;;15.33;;
69185;SDS011;56298;49.246;9.410;2023-03-01T15:02:27;24.17;;;14.80;;
69185;SDS011;56298;49.246;9.410;2023-03-01T15:04:55;26.92;;;15.18;;
69185;SDS011;56298;49.246;9.410;2023-03-01T15:07:23;28.10;;;15.40;;
69185;SDS011;56298;49.246;9.410;2023-03-01T15:09:54;26.23;;;15.15;;
69185;SDS011;56298;49.246;9.410;2023-03-01T15:14:54;25.77;;;14.60;;
69185;SDS011;56298;49.246;9.410;2023-03-01T15:17:26;26.17;;;15.18;;
69185;SDS011;56298;49.246;9.410;2023-03-01T15:20:00;27.33;;;15.00;;
69185;SDS011;56298;49.246;9.410;2023-03-01T15:22:28;25.20;;;14.27;;
69185;SDS011;56298;49.246;9.410;2023-03-01T15:24:53;26.23;;;14.87;;
69185;SDS011;56298;49.246;9.410;2023-03-01T15:27:20;25.52;;;14.63;;
69185;SDS011;56298;49.246;9.410;2023-03-01T15:29:51;26.60;;;14.88;;
69185;SDS011;56298;49.246;9.410;2023-03-01T15:32:25;24.83;;;14.63;;
69185;SDS011;56298;49.246;9.410;2023-03-01T15:34:52;25.63;;;14.60;;
69185;SDS011;56298;49.246;9.410;2023-03-01T15:40:20;25.17;;;14.43;;
69185;SDS011;56298;49.246;9.410;2023-03-01T15:42:49;27.20;;;14.70;;
69185;SDS011;56298;49.246;9.410;2023-03-01T15:47:43;25.10;;;14.25;;
69185;SDS011;56298;49.246;9.410;2023-03-01T15:50:25;25.40;;;14.40;;
69185;SDS011;56298;49.246;9.410;2023-03-01T15:52:53;24.17;;;14.18;;
69185;SDS011;56298;49.246;9.410;2023-03-01T15:55:23;25.02;;;14.55;;
69185;SDS011;56298;49.246;9.410;2023-03-01T15:58:00;22.90;;;13.73;;
69185;SDS011;56298;49.246;9.410;2023-03-01T16:00:29;23.95;;;13.77;;